createdAt,value
2018-03-30T00:01:20.850Z,68.40
2018-03-30T00:03:48.439Z,69.00
2018-03-30T00:06:16.023Z,69.20
2018-03-30T00:08:43.644Z,69.60
2018-03-30T00:11:11.202Z,68.90
2018-03-30T00:13:38.804Z,68.80
2018-03-30T00:16:06.510Z,69.10
2018-03-30T00:18:34.110Z,70.00
2018-03-30T00:21:01.678Z,70.70
2018-03-30T00:23:29.287Z,71.00
2018-03-30T00:25:56.870Z,71.30
2018-03-30T00:28:24.442Z,70.60
2018-03-30T00:30:52.031Z,70.20
2018-03-30T00:33:20.362Z,69.50
2018-03-30T00:35:49.210Z,69.50
2018-03-30T00:38:17.548Z,71.30
2018-03-30T00:40:45.150Z,71.30
2018-03-30T00:43:13.527Z,72.20
2018-03-30T00:48:16.247Z,72.40
2018-03-30T00:50:43.839Z,72.60
2018-03-30T00:56:26.801Z,71.60
2018-03-30T00:58:55.144Z,73.40
2018-03-30T01:01:22.739Z,72.90
2018-03-30T01:03:51.109Z,73.60
2018-03-30T01:06:19.489Z,73.90
2018-03-30T01:08:47.965Z,72.90
2018-03-30T01:11:15.537Z,73.90
2018-03-30T01:13:43.930Z,74.70
2018-03-30T01:16:11.486Z,74.70
2018-03-30T01:18:39.054Z,74.80
2018-03-30T01:21:06.674Z,73.70
2018-03-30T01:23:34.230Z,73.60
2018-03-30T01:26:02.687Z,74.80
2018-03-30T01:28:30.383Z,74.80
2018-03-30T01:30:58.826Z,75.40
2018-03-30T01:33:26.394Z,75.30
2018-03-30T01:35:54.002Z,75.40
2018-03-30T01:38:21.619Z,74.30
2018-03-30T01:40:49.231Z,73.70
2018-03-30T01:43:16.798Z,74.00
2018-03-30T01:45:44.362Z,73.90
2018-03-30T01:48:11.953Z,73.80
2018-03-30T01:50:39.534Z,73.80
2018-03-30T01:53:07.884Z,74.00
2018-03-30T01:55:35.462Z,73.90
2018-03-30T01:58:03.926Z,74.60
2018-03-30T02:00:31.497Z,74.60
2018-03-30T02:03:00.030Z,74.80
2018-03-30T02:05:27.613Z,74.60
2018-03-30T02:07:55.194Z,74.80
2018-03-30T02:10:22.779Z,75.30
2018-03-30T02:12:50.346Z,76.10
2018-03-30T02:15:17.979Z,75.30
2018-03-30T02:17:46.342Z,75.80
2018-03-30T02:20:13.931Z,75.80
2018-03-30T02:22:42.279Z,76.30
2018-03-30T02:25:10.110Z,76.20
2018-03-30T02:27:37.831Z,75.30
2018-03-30T02:30:05.444Z,75.80
2018-03-30T02:32:33.014Z,75.40
2018-03-30T02:35:00.660Z,75.90
2018-03-30T02:37:28.231Z,76.30
2018-03-30T02:39:55.825Z,76.50
2018-03-30T02:42:24.192Z,76.40
2018-03-30T02:44:52.521Z,76.80
2018-03-30T02:47:20.224Z,76.70
2018-03-30T02:49:48.736Z,77.40
2018-03-30T02:52:16.418Z,77.40
2018-03-30T02:54:44.008Z,77.50
2018-03-30T02:57:11.835Z,78.00
2018-03-30T02:59:40.223Z,77.70
2018-03-30T03:04:42.661Z,77.20
2018-03-30T03:07:11.001Z,76.70
2018-03-30T03:09:38.604Z,76.70
2018-03-30T03:12:06.947Z,77.50
2018-03-30T03:14:34.565Z,77.50
2018-03-30T03:17:02.142Z,77.10
2018-03-30T03:19:29.895Z,77.80
2018-03-30T03:21:57.461Z,78.10
2018-03-30T03:24:25.066Z,77.30
2018-03-30T03:26:53.402Z,77.70
2018-03-30T03:29:20.963Z,77.70
2018-03-30T03:31:48.563Z,78.00
2018-03-30T03:34:17.024Z,77.80
2018-03-30T03:36:44.615Z,77.80
2018-03-30T03:39:12.326Z,78.00
2018-03-30T03:41:39.939Z,78.80
2018-03-30T03:44:08.411Z,79.10
2018-03-30T03:46:36.833Z,78.70
2018-03-30T03:49:04.517Z,78.60
2018-03-30T03:51:32.287Z,79.00
2018-03-30T03:53:59.930Z,78.40
2018-03-30T03:56:27.501Z,78.30
2018-03-30T03:58:55.111Z,78.70
2018-03-30T04:01:22.679Z,78.80
2018-03-30T04:03:50.279Z,78.80
2018-03-30T04:06:17.870Z,78.40
2018-03-30T04:08:46.264Z,77.70
2018-03-30T04:11:13.825Z,77.70
2018-03-30T04:13:41.391Z,77.70
2018-03-30T04:16:09.316Z,77.80
2018-03-30T04:18:36.986Z,77.70
2018-03-30T04:21:05.348Z,77.40
2018-03-30T04:23:32.904Z,77.40
2018-03-30T04:26:00.504Z,77.40
2018-03-30T04:28:28.082Z,77.60
2018-03-30T04:30:55.686Z,78.50
2018-03-30T04:33:23.267Z,78.90
2018-03-30T04:35:50.968Z,79.20
2018-03-30T04:38:18.661Z,78.20
2018-03-30T04:40:46.341Z,77.40
2018-03-30T04:43:14.791Z,77.40
2018-03-30T04:45:42.385Z,77.40
2018-03-30T04:48:10.751Z,77.80
2018-03-30T04:50:38.318Z,77.70
2018-03-30T04:53:06.650Z,78.90
2018-03-30T04:55:34.246Z,78.80
2018-03-30T04:58:02.583Z,78.20
2018-03-30T05:00:30.316Z,78.10
2018-03-30T05:02:57.870Z,77.70
2018-03-30T05:05:25.467Z,78.10
2018-03-30T05:07:53.042Z,78.00
2018-03-30T05:10:20.663Z,78.20
2018-03-30T05:12:48.256Z,77.90
2018-03-30T05:15:15.823Z,78.60
2018-03-30T05:17:43.415Z,78.60
2018-03-30T05:20:11.003Z,78.50
2018-03-30T05:22:38.731Z,78.00
2018-03-30T05:25:07.070Z,77.90
2018-03-30T05:27:34.671Z,77.90
2018-03-30T05:30:03.116Z,78.50
2018-03-30T05:32:30.700Z,78.50
2018-03-30T05:34:59.070Z,77.60
2018-03-30T05:37:27.445Z,77.60
2018-03-30T05:39:55.814Z,76.10
2018-03-30T05:42:23.444Z,76.00
2018-03-30T05:44:51.174Z,76.80
2018-03-30T05:47:18.872Z,76.00
2018-03-30T05:49:46.467Z,75.90
2018-03-30T05:52:14.920Z,76.70
2018-03-30T05:54:42.514Z,76.60
2018-03-30T05:57:10.854Z,77.20
2018-03-30T05:59:38.480Z,77.70
2018-03-30T06:02:06.213Z,77.40
2018-03-30T06:04:34.559Z,76.00
2018-03-30T06:07:02.163Z,76.00
2018-03-30T06:09:29.746Z,75.90
2018-03-30T06:11:57.454Z,75.20
2018-03-30T06:14:25.030Z,74.90
2018-03-30T06:16:53.398Z,75.30
2018-03-30T06:19:21.848Z,74.90
2018-03-30T06:21:49.514Z,74.90
2018-03-30T06:24:17.139Z,74.00
2018-03-30T06:26:44.845Z,73.60
2018-03-30T06:29:13.235Z,69.40
2018-03-30T06:31:41.690Z,65.40
2018-03-30T06:34:09.288Z,65.40
2018-03-30T06:36:37.624Z,64.60
2018-03-30T06:39:06.139Z,64.50
2018-03-30T06:41:34.484Z,58.50
2018-03-30T06:44:02.075Z,58.30
2018-03-30T06:46:30.420Z,56.60
2018-03-30T06:48:58.786Z,54.60
2018-03-30T06:51:26.374Z,54.20
2018-03-30T06:53:53.986Z,51.60
2018-03-30T06:56:21.579Z,53.40
2018-03-30T06:58:49.661Z,52.60
2018-03-30T07:01:17.251Z,51.30
2018-03-30T07:03:44.845Z,52.40
2018-03-30T07:06:12.457Z,53.10
2018-03-30T07:08:40.815Z,52.70
2018-03-30T07:11:08.419Z,52.50
2018-03-30T07:13:35.988Z,52.80
2018-03-30T07:16:03.602Z,55.00
2018-03-30T07:18:31.156Z,54.80
2018-03-30T07:20:59.689Z,52.40
2018-03-30T07:23:27.255Z,52.30
2018-03-30T07:25:54.867Z,50.90
2018-03-30T07:28:23.334Z,52.90
2018-03-30T07:30:50.899Z,52.80
2018-03-30T07:33:19.447Z,53.90
2018-03-30T07:35:47.214Z,53.80
2018-03-30T07:38:14.823Z,52.80
2018-03-30T07:40:42.389Z,55.20
2018-03-30T07:43:09.965Z,55.10
2018-03-30T07:45:37.559Z,55.40
2018-03-30T07:48:05.137Z,56.10
2018-03-30T07:50:33.510Z,55.90
2018-03-30T07:53:01.830Z,54.10
2018-03-30T07:55:29.434Z,54.60
2018-03-30T07:57:57.050Z,52.20
2018-03-30T08:00:24.734Z,50.40
2018-03-30T08:02:52.366Z,48.20
2018-03-30T08:05:19.962Z,48.00
2018-03-30T08:07:47.536Z,51.20
2018-03-30T08:10:15.142Z,51.00
2018-03-30T08:12:42.714Z,50.20
2018-03-30T08:15:10.343Z,49.60
2018-03-30T08:17:37.957Z,48.50
2018-03-30T08:20:05.486Z,48.30
2018-03-30T08:22:33.160Z,49.10
2018-03-30T08:25:01.535Z,47.90
2018-03-30T08:27:29.112Z,47.90
2018-03-30T08:29:56.710Z,46.30
2018-03-30T08:32:25.087Z,48.10
2018-03-30T08:34:53.437Z,47.80
2018-03-30T08:37:21.027Z,47.80
2018-03-30T08:39:49.375Z,46.00
2018-03-30T08:42:16.983Z,46.00
2018-03-30T08:44:44.546Z,46.40
2018-03-30T08:47:12.155Z,46.10
2018-03-30T08:49:39.756Z,47.10
2018-03-30T08:52:07.365Z,44.90
2018-03-30T08:54:34.918Z,43.20
2018-03-30T08:57:02.672Z,42.90
2018-03-30T08:59:30.347Z,43.20
2018-03-30T09:01:57.912Z,43.50
2018-03-30T09:04:26.292Z,45.30
2018-03-30T09:06:54.024Z,45.30
2018-03-30T09:09:21.587Z,44.70
2018-03-30T09:11:49.311Z,45.30
2018-03-30T09:14:16.991Z,47.20
2018-03-30T09:16:44.609Z,46.90
2018-03-30T09:19:12.990Z,44.90
2018-03-30T09:21:41.423Z,44.00
2018-03-30T09:24:09.033Z,44.00
2018-03-30T09:26:37.420Z,43.40
2018-03-30T09:29:04.981Z,43.30
2018-03-30T09:31:32.584Z,45.80
2018-03-30T09:34:00.140Z,44.10
2018-03-30T09:36:27.752Z,43.10
2018-03-30T09:38:55.336Z,42.20
2018-03-30T09:41:22.941Z,42.80
2018-03-30T09:43:50.559Z,43.40
2018-03-30T09:46:18.226Z,41.80
2018-03-30T09:48:45.985Z,43.40
2018-03-30T09:51:13.539Z,42.50
2018-03-30T09:53:41.104Z,41.60
2018-03-30T09:56:08.696Z,41.10
2018-03-30T09:58:36.252Z,41.40
2018-03-30T10:01:09.638Z,41.10
2018-03-30T10:03:41.077Z,40.50
2018-03-30T10:06:08.691Z,40.30
2018-03-30T10:08:36.251Z,39.70
2018-03-30T10:11:03.802Z,39.50
2018-03-30T10:13:32.266Z,38.70
2018-03-30T10:16:00.627Z,36.40
2018-03-30T10:18:28.187Z,36.30
2018-03-30T10:20:55.784Z,37.10
2018-03-30T10:23:23.342Z,36.50
2018-03-30T10:25:50.940Z,38.00
2018-03-30T10:28:18.535Z,36.20
2018-03-30T10:30:46.890Z,33.90
2018-03-30T10:33:14.679Z,33.90
2018-03-30T10:35:43.047Z,34.00
2018-03-30T10:38:10.634Z,34.10
2018-03-30T10:40:38.239Z,34.90
2018-03-30T10:43:05.799Z,34.90
2018-03-30T10:45:33.367Z,35.20
2018-03-30T10:48:00.965Z,34.20
2018-03-30T10:50:28.551Z,34.80
2018-03-30T10:52:56.134Z,32.00
2018-03-30T10:55:23.711Z,32.80
2018-03-30T10:57:51.338Z,32.90
2018-03-30T11:00:19.059Z,32.00
2018-03-30T11:02:46.606Z,32.30
2018-03-30T11:05:14.990Z,30.80
2018-03-30T11:07:42.531Z,30.70
2018-03-30T11:10:10.862Z,29.80
2018-03-30T11:12:38.474Z,29.80
2018-03-30T11:15:06.795Z,29.40
2018-03-30T11:17:34.393Z,29.40
2018-03-30T11:20:01.964Z,27.40
2018-03-30T11:22:29.564Z,29.00
2018-03-30T11:24:57.135Z,28.80
2018-03-30T11:27:24.736Z,28.20
2018-03-30T11:29:52.330Z,29.70
2018-03-30T11:32:19.911Z,29.90
2018-03-30T11:34:47.515Z,30.50
2018-03-30T11:37:15.079Z,29.50
2018-03-30T11:39:43.506Z,31.20
2018-03-30T11:42:11.088Z,31.20
2018-03-30T11:44:38.676Z,32.00
2018-03-30T11:47:07.022Z,31.50
2018-03-30T11:49:34.599Z,31.50
2018-03-30T11:52:02.190Z,31.20
2018-03-30T11:54:29.782Z,31.00
2018-03-30T11:56:57.375Z,31.90
2018-03-30T11:59:24.947Z,31.70
2018-03-30T12:01:53.414Z,31.40
2018-03-30T12:04:20.982Z,31.50
2018-03-30T12:06:49.343Z,32.50
2018-03-30T12:09:16.904Z,32.40
2018-03-30T12:11:44.520Z,32.40
2018-03-30T12:14:12.079Z,31.90
2018-03-30T12:16:39.673Z,31.30
2018-03-30T12:19:07.246Z,31.80
2018-03-30T12:21:34.860Z,31.90
2018-03-30T12:24:02.435Z,32.00
2018-03-30T12:26:30.107Z,31.00
2018-03-30T12:28:57.719Z,31.00
2018-03-30T12:31:25.292Z,30.60
2018-03-30T12:33:52.904Z,30.30
2018-03-30T12:36:20.546Z,30.70
2018-03-30T12:38:48.136Z,31.40
2018-03-30T12:41:16.486Z,30.70
2018-03-30T12:43:44.882Z,30.90
2018-03-30T12:46:13.259Z,32.30
2018-03-30T12:48:41.583Z,31.00
2018-03-30T12:51:09.182Z,31.00
2018-03-30T12:53:36.762Z,30.80
2018-03-30T12:56:05.141Z,31.60
2018-03-30T12:58:33.476Z,32.20
2018-03-30T13:01:01.056Z,32.10
2018-03-30T13:03:28.623Z,31.80
2018-03-30T13:05:56.239Z,31.60
2018-03-30T13:08:24.124Z,31.10
2018-03-30T13:10:51.710Z,31.40
2018-03-30T13:13:19.259Z,32.00
2018-03-30T13:15:46.839Z,31.90
2018-03-30T13:18:15.235Z,33.00
2018-03-30T13:20:42.860Z,33.00
2018-03-30T13:23:10.447Z,34.00
2018-03-30T13:25:38.110Z,33.00
2018-03-30T13:28:05.718Z,34.00
2018-03-30T13:30:33.287Z,34.10
2018-03-30T13:33:00.891Z,34.50
2018-03-30T13:35:28.451Z,34.90
2018-03-30T13:37:56.022Z,35.30
2018-03-30T13:40:23.651Z,35.10
2018-03-30T13:42:52.077Z,35.50
2018-03-30T13:45:19.834Z,35.50
2018-03-30T13:47:47.425Z,35.20
2018-03-30T13:50:18.623Z,37.20
2018-03-30T13:55:43.335Z,37.10
2018-03-30T13:58:12.718Z,37.90
2018-03-30T14:00:45.181Z,38.60
2018-03-30T14:03:17.375Z,39.50
2018-03-30T14:05:47.855Z,39.50
2018-03-30T14:08:18.899Z,39.70
2018-03-30T14:10:48.151Z,39.60
2018-03-30T14:13:15.807Z,39.60
2018-03-30T14:15:43.437Z,38.80
2018-03-30T14:18:19.735Z,38.90
2018-03-30T14:20:49.338Z,37.70
2018-03-30T14:23:17.727Z,38.10
2018-03-30T14:25:47.723Z,40.20
2018-03-30T14:31:36.962Z,39.10
2018-03-30T14:34:08.128Z,39.00
2018-03-30T14:36:49.179Z,38.60
2018-03-30T14:39:23.373Z,38.60
2018-03-30T14:41:51.010Z,39.40
2018-03-30T14:44:20.039Z,38.30
2018-03-30T14:46:52.131Z,38.50
2018-03-30T14:49:26.583Z,38.80
2018-03-30T14:51:59.742Z,38.40
2018-03-30T14:54:32.018Z,38.30
2018-03-30T14:57:06.363Z,37.90
2018-03-30T14:59:35.298Z,37.70
2018-03-30T15:02:07.422Z,38.00
2018-03-30T15:04:47.562Z,37.40
2018-03-30T15:07:26.890Z,37.80
2018-03-30T15:10:00.967Z,38.00
2018-03-30T15:12:30.134Z,38.20
2018-03-30T15:15:01.451Z,38.10
2018-03-30T15:17:34.797Z,38.10
2018-03-30T15:20:07.950Z,38.30
2018-03-30T15:22:40.100Z,38.10
2018-03-30T15:25:08.527Z,38.10
2018-03-30T15:27:39.118Z,38.40
2018-03-30T15:30:12.607Z,38.90
2018-03-30T15:36:07.650Z,38.90
2018-03-30T15:38:35.276Z,39.10
2018-03-30T15:41:02.851Z,39.20
2018-03-30T15:43:33.040Z,38.90
2018-03-30T15:46:31.304Z,39.20
2018-03-30T15:48:59.648Z,40.40
2018-03-30T15:51:38.828Z,39.80
2018-03-30T15:54:05.921Z,39.90
2018-03-30T15:56:39.057Z,40.30
2018-03-30T15:59:07.424Z,40.40
2018-03-30T16:01:35.812Z,40.70
2018-03-30T16:04:04.320Z,41.10
2018-03-30T16:06:32.028Z,41.00
2018-03-30T16:08:59.634Z,41.00
2018-03-30T16:11:38.946Z,41.30
2018-03-30T16:14:06.527Z,41.40
2018-03-30T16:16:34.113Z,41.70
2018-03-30T16:19:01.163Z,41.80
2018-03-30T16:21:28.215Z,41.90
2018-03-30T16:23:55.345Z,42.50
2018-03-30T16:26:22.414Z,42.60
2018-03-30T16:28:49.487Z,43.60
2018-03-30T16:31:17.322Z,43.00
2018-03-30T16:33:44.378Z,43.00
2018-03-30T16:36:11.438Z,43.10
2018-03-30T16:38:38.505Z,43.90
2018-03-30T16:41:05.673Z,43.70
2018-03-30T16:43:32.711Z,44.10
2018-03-30T16:45:59.803Z,44.10
2018-03-30T16:48:26.847Z,43.60
2018-03-30T16:50:54.021Z,43.70
2018-03-30T16:53:21.887Z,44.30
2018-03-30T16:55:48.972Z,44.20
2018-03-30T16:58:16.011Z,44.30
2018-03-30T17:00:43.100Z,44.40
2018-03-30T17:03:10.147Z,44.00
2018-03-30T17:05:37.186Z,44.60
2018-03-30T17:08:04.528Z,44.80
2018-03-30T17:10:31.577Z,44.80
2018-03-30T17:12:58.679Z,45.80
2018-03-30T17:15:26.500Z,45.50
2018-03-30T17:17:53.596Z,45.40
2018-03-30T17:20:21.409Z,45.40
2018-03-30T17:22:48.484Z,45.40
2018-03-30T17:25:15.526Z,45.50
2018-03-30T17:27:42.725Z,44.90
2018-03-30T17:30:09.771Z,48.70
2018-03-30T17:32:36.983Z,52.70
2018-03-30T17:35:05.000Z,59.60
2018-03-30T17:37:32.074Z,59.00
2018-03-30T17:39:59.159Z,61.20
2018-03-30T17:42:26.983Z,65.30
2018-03-30T17:44:54.063Z,65.30
2018-03-30T17:47:22.091Z,70.90
2018-03-30T17:49:49.178Z,70.90
2018-03-30T17:52:17.035Z,72.20
2018-03-30T17:54:44.100Z,72.10
2018-03-30T17:57:11.138Z,75.50
2018-03-30T17:59:38.982Z,75.40
2018-03-30T18:02:06.139Z,75.20
2018-03-30T18:04:34.032Z,76.70
2018-03-30T18:07:01.116Z,76.50
2018-03-30T18:09:28.199Z,75.60
2018-03-30T18:11:56.010Z,76.40
2018-03-30T18:14:23.128Z,77.30
2018-03-30T18:16:50.947Z,79.00
2018-03-30T18:19:17.995Z,79.00
2018-03-30T18:21:45.077Z,76.70
2018-03-30T18:24:12.898Z,78.40
2018-03-30T18:26:40.051Z,78.30
2018-03-30T18:29:07.096Z,77.80
2018-03-30T18:31:34.187Z,77.20
2018-03-30T18:34:02.055Z,76.80
2018-03-30T18:36:29.911Z,77.60
2018-03-30T18:38:57.781Z,77.20
2018-03-30T18:41:25.692Z,78.40
2018-03-30T18:43:52.775Z,78.40
2018-03-30T18:46:20.590Z,77.60
2018-03-30T18:48:47.660Z,77.60
2018-03-30T18:51:14.797Z,78.10
2018-03-30T18:53:42.651Z,78.40
2018-03-30T18:56:09.765Z,78.40
2018-03-30T18:58:37.628Z,77.30
2018-03-30T19:01:05.443Z,77.10
2018-03-30T19:03:32.974Z,77.10
2018-03-30T19:06:00.060Z,76.80
2018-03-30T19:08:27.147Z,78.60
2018-03-30T19:10:54.978Z,77.80
2018-03-30T19:13:22.076Z,77.80
2018-03-30T19:15:49.129Z,78.10
2018-03-30T19:18:16.213Z,78.10
2018-03-30T19:20:43.267Z,78.60
2018-03-30T19:23:10.355Z,79.50
2018-03-30T19:25:38.243Z,79.80
2018-03-30T19:28:05.375Z,79.70
2018-03-30T19:30:32.469Z,79.60
2018-03-30T19:32:59.603Z,81.10
2018-03-30T19:35:26.688Z,81.00
2018-03-30T19:37:53.739Z,80.50
2018-03-30T19:40:20.810Z,81.20
2018-03-30T19:42:47.856Z,81.00
2018-03-30T19:45:14.956Z,81.80
2018-03-30T19:47:42.033Z,82.10
2018-03-30T19:50:09.873Z,82.60
2018-03-30T19:52:36.911Z,82.60
2018-03-30T19:55:04.256Z,82.00
2018-03-30T19:57:31.440Z,82.00
2018-03-30T19:59:58.483Z,81.30
2018-03-30T20:02:25.553Z,82.00
2018-03-30T20:04:52.624Z,81.70
2018-03-30T20:07:19.708Z,82.60
2018-03-30T20:09:46.813Z,81.90
2018-03-30T20:12:13.887Z,81.90
2018-03-30T20:14:40.935Z,82.30
2018-03-30T20:17:08.045Z,82.60
2018-03-30T20:19:35.111Z,81.90
2018-03-30T20:22:02.189Z,80.90
2018-03-30T20:24:29.279Z,81.10
2018-03-30T20:26:57.710Z,81.60
2018-03-30T20:29:24.786Z,81.90
2018-03-30T20:31:52.607Z,82.00
2018-03-30T20:34:19.687Z,82.00
2018-03-30T20:36:46.750Z,85.00
2018-03-30T20:39:14.586Z,84.40
2018-03-30T20:41:41.635Z,84.30
2018-03-30T20:44:08.714Z,83.40
2018-03-30T20:46:36.583Z,82.50
2018-03-30T20:49:03.738Z,82.50
2018-03-30T20:51:30.799Z,81.50
2018-03-30T20:53:57.892Z,81.70
2018-03-30T20:56:25.080Z,81.90
2018-03-30T20:58:52.243Z,83.90
2018-03-30T21:01:19.316Z,86.40
2018-03-30T21:03:46.371Z,88.00
2018-03-30T21:06:13.453Z,84.70
2018-03-30T21:08:41.359Z,85.60
2018-03-30T21:11:08.447Z,85.40
2018-03-30T21:13:35.503Z,84.70
2018-03-30T21:16:02.574Z,83.80
2018-03-30T21:18:29.627Z,82.50
2018-03-30T21:20:56.703Z,81.70
2018-03-30T21:23:23.764Z,83.40
2018-03-30T21:25:50.810Z,86.00
2018-03-30T21:28:18.008Z,85.90
2018-03-30T21:30:45.818Z,84.30
2018-03-30T21:33:12.994Z,84.20
2018-03-30T21:35:40.043Z,85.70
2018-03-30T21:38:07.180Z,84.50
2018-03-30T21:40:34.319Z,82.40
2018-03-30T21:43:01.387Z,83.10
2018-03-30T21:45:28.427Z,83.40
2018-03-30T21:47:55.576Z,83.70
2018-03-30T21:50:22.666Z,82.50
2018-03-30T21:52:49.879Z,83.20
2018-03-30T21:55:16.974Z,82.40
2018-03-30T21:57:44.014Z,82.30
2018-03-30T22:00:11.087Z,83.20
2018-03-30T22:02:38.148Z,85.50
2018-03-30T22:05:05.215Z,82.90
2018-03-30T22:07:32.270Z,84.70
2018-03-30T22:10:00.290Z,83.40
2018-03-30T22:12:27.478Z,83.40
2018-03-30T22:14:54.554Z,84.20
2018-03-30T22:17:21.679Z,86.20
2018-03-30T22:19:49.703Z,85.70
2018-03-30T22:22:16.739Z,85.70
2018-03-30T22:24:43.814Z,82.00
2018-03-30T22:27:10.975Z,80.70
2018-03-30T22:29:38.064Z,80.80
2018-03-30T22:32:05.180Z,80.40
2018-03-30T22:34:32.271Z,80.80
2018-03-30T22:36:59.374Z,80.80
2018-03-30T22:39:26.458Z,81.40
2018-03-30T22:41:53.517Z,81.60
2018-03-30T22:44:20.711Z,80.10
2018-03-30T22:46:47.869Z,79.00
2018-03-30T22:49:14.947Z,80.00
2018-03-30T22:51:41.982Z,79.80
2018-03-30T22:54:09.983Z,79.40
2018-03-30T22:56:37.087Z,79.40
2018-03-30T22:59:05.114Z,79.90
2018-03-30T23:01:32.159Z,79.90
2018-03-30T23:03:59.231Z,79.30
2018-03-30T23:06:26.330Z,79.80
2018-03-30T23:08:53.372Z,78.90
2018-03-30T23:11:20.458Z,79.50
2018-03-30T23:13:47.646Z,79.40
2018-03-30T23:16:15.502Z,82.40
2018-03-30T23:18:43.367Z,84.50
2018-03-30T23:21:11.206Z,82.70
2018-03-30T23:23:38.243Z,82.60
2018-03-30T23:26:05.391Z,79.00
2018-03-30T23:28:32.446Z,78.40
2018-03-30T23:30:59.530Z,82.10
2018-03-30T23:33:27.364Z,79.00
2018-03-30T23:35:54.443Z,79.00
2018-03-30T23:38:22.431Z,79.40
2018-03-30T23:40:49.459Z,79.30
2018-03-30T23:43:17.291Z,79.50
2018-03-30T23:45:44.349Z,79.60
2018-03-30T23:48:11.491Z,78.30
2018-03-30T23:50:38.594Z,78.70
2018-03-30T23:53:05.685Z,77.90
2018-03-30T23:55:32.726Z,77.20
2018-03-30T23:57:59.764Z,77.90
